Time;durP1;ratioP1;P1;durP2;ratioP2;P2;SDS_P1;SDS_P2;PMS_P1;PMS_P2;Temp;Humidity;BMP_temperature;BMP_pressure;BME280_temperature;BME280_humidity;BME280_pressure;Samples;Min_cycle;Max_cycle;Signal;HPM_P1;HPM_P2
2021/01/29 00:00:29;;;;;;;12.10;6.90;;;7.70;99.90;;;;;;5096296;28;20283;-68
2021/01/29 00:02:56;;;;;;;6.20;4.72;;;7.90;99.90;;;;;;5096029;28;20152;-68
2021/01/29 00:05:24;;;;;;;8.57;7.00;;;7.80;99.90;;;;;;5096006;28;20171;-68
2021/01/29 00:07:49;;;;;;;8.38;5.95;;;7.80;99.90;;;;;;5094608;28;20425;-68
2021/01/29 00:10:16;;;;;;;8.73;5.33;;;7.70;99.90;;;;;;5096323;28;20663;-68
2021/01/29 00:12:42;;;;;;;7.45;5.28;;;7.60;99.90;;;;;;5096109;28;20164;-68
2021/01/29 00:15:11;;;;;;;7.20;5.80;;;7.60;99.90;;;;;;5096392;28;20173;-68
2021/01/29 00:17:37;;;;;;;8.90;4.90;;;7.60;99.90;;;;;;5095942;28;20164;-67
2021/01/29 00:20:05;;;;;;;8.57;5.67;;;7.60;99.90;;;;;;5096163;28;20521;-68
2021/01/29 00:22:30;;;;;;;8.20;5.22;;;7.60;99.90;;;;;;5095708;28;20199;-68
2021/01/29 00:24:56;;;;;;;9.10;6.40;;;7.60;99.90;;;;;;5095648;28;20198;-68
2021/01/29 00:27:21;;;;;;;7.90;5.87;;;7.70;99.90;;;;;;5095586;28;20249;-68
2021/01/29 00:29:47;;;;;;;8.43;6.90;;;7.80;99.90;;;;;;5095998;28;20651;-68
2021/01/29 00:32:12;;;;;;;8.50;6.10;;;7.90;99.90;;;;;;5095364;28;20204;-68
2021/01/29 00:34:38;;;;;;;8.00;6.70;;;7.80;99.90;;;;;;5095733;28;20667;-68
2021/01/29 00:37:04;;;;;;;8.80;6.20;;;7.80;99.90;;;;;;5095428;28;20654;-67
2021/01/29 00:39:29;;;;;;;8.07;5.90;;;7.70;99.90;;;;;;5095737;28;20219;-68
2021/01/29 00:41:55;;;;;;;6.93;5.90;;;7.60;99.90;;;;;;5095422;28;20509;-68
2021/01/29 00:44:20;;;;;;;14.90;6.47;;;7.80;99.90;;;;;;5095551;28;20181;-69
2021/01/29 00:46:46;;;;;;;9.47;6.50;;;7.70;99.90;;;;;;5095519;28;20173;-68
2021/01/29 00:49:11;;;;;;;10.90;7.23;;;7.60;99.90;;;;;;5095143;28;20241;-68
2021/01/29 00:51:37;;;;;;;9.10;5.50;;;7.70;99.90;;;;;;5094054;28;20622;-69
2021/01/29 00:54:03;;;;;;;9.63;6.87;;;7.60;99.90;;;;;;5095112;28;20171;-68
2021/01/29 00:56:28;;;;;;;9.27;6.93;;;7.60;99.90;;;;;;5095285;28;20171;-69
2021/01/29 00:58:54;;;;;;;10.63;6.60;;;7.70;99.90;;;;;;5094924;28;20374;-69
2021/01/29 01:01:19;;;;;;;9.43;7.03;;;7.70;99.90;;;;;;5094802;28;20243;-68
2021/01/29 01:03:45;;;;;;;8.70;6.00;;;7.80;99.90;;;;;;5095061;28;20182;-69
2021/01/29 01:06:10;;;;;;;8.53;5.70;;;7.90;99.90;;;;;;5094981;28;20249;-69
2021/01/29 01:08:36;;;;;;;9.87;5.93;;;8.20;99.90;;;;;;5094103;28;20238;-69
2021/01/29 01:11:01;;;;;;;10.47;5.10;;;8.20;99.90;;;;;;5094645;28;20662;-69
2021/01/29 01:13:27;;;;;;;12.23;6.60;;;8.20;99.90;;;;;;5094751;28;20186;-69
2021/01/29 01:15:52;;;;;;;12.53;5.60;;;8.10;99.90;;;;;;5095035;28;20271;-69
2021/01/29 01:18:18;;;;;;;12.20;5.90;;;8.20;99.90;;;;;;5094792;28;20175;-69
2021/01/29 01:20:43;;;;;;;9.90;4.63;;;8.20;99.90;;;;;;5094549;28;20187;-69
2021/01/29 01:23:09;;;;;;;12.17;5.57;;;8.30;99.90;;;;;;5094540;28;20671;-69
2021/01/29 01:25:35;;;;;;;11.97;4.60;;;8.40;99.90;;;;;;5094755;28;20241;-70
2021/01/29 01:28:00;;;;;;;10.03;4.37;;;8.20;99.90;;;;;;5094497;28;20256;-69
2021/01/29 01:30:35;;;;;;;8.37;4.07;;;8.40;99.90;;;;;;5094324;28;20203;-70
2021/01/29 01:33:01;;;;;;;13.00;4.60;;;8.40;99.90;;;;;;5094418;28;20177;-69
2021/01/29 01:35:27;;;;;;;7.65;4.07;;;8.50;99.90;;;;;;5094318;28;20425;-70
2021/01/29 01:37:53;;;;;;;11.23;4.20;;;8.50;99.90;;;;;;5094268;28;20170;-69
2021/01/29 01:40:22;;;;;;;10.97;4.00;;;8.60;99.90;;;;;;5094126;28;20192;-69
2021/01/29 01:42:48;;;;;;;17.77;4.70;;;8.60;99.90;;;;;;5093013;28;20500;-69
2021/01/29 01:45:26;;;;;;;8.83;3.83;;;8.60;99.90;;;;;;5094168;28;20262;-69
2021/01/29 01:47:54;;;;;;;6.33;3.97;;;8.60;99.90;;;;;;5094108;28;20434;-69
2021/01/29 01:50:31;;;;;;;7.53;3.87;;;8.40;99.90;;;;;;5094174;28;20457;-69
2021/01/29 01:52:58;;;;;;;7.10;3.83;;;8.40;99.90;;;;;;5094247;28;20400;-69
2021/01/29 01:55:27;;;;;;;11.27;3.72;;;8.40;99.90;;;;;;5094174;28;20163;-69
2021/01/29 01:57:55;;;;;;;12.98;4.65;;;8.40;99.90;;;;;;5093834;28;20168;-69
2021/01/29 02:00:29;;;;;;;7.93;4.30;;;8.50;99.90;;;;;;5093984;28;20226;-69
2021/01/29 02:03:16;;;;;;;11.98;5.45;;;8.40;99.90;;;;;;5093820;28;20631;-69
2021/01/29 02:05:42;;;;;;;7.93;3.40;;;8.40;99.90;;;;;;5094059;28;20167;-68
2021/01/29 02:08:11;;;;;;;10.13;3.72;;;8.30;99.90;;;;;;5093667;28;20796;-69
2021/01/29 02:10:37;;;;;;;4.28;2.72;;;8.30;99.90;;;;;;5093512;28;20201;-69
2021/01/29 02:13:04;;;;;;;7.47;3.67;;;8.10;99.90;;;;;;5093591;28;20165;-69
2021/01/29 02:15:44;;;;;;;7.00;2.87;;;8.20;99.90;;;;;;5093575;28;20405;-69
2021/01/29 02:18:36;;;;;;;3.93;3.03;;;8.20;99.90;;;;;;5093844;28;20403;-69
2021/01/29 02:21:14;;;;;;;7.15;2.75;;;8.10;99.90;;;;;;5093405;28;20424;-69
2021/01/29 02:24:16;;;;;;;10.70;3.27;;;8.10;99.90;;;;;;5093831;28;20158;-69
2021/01/29 02:27:22;;;;;;;9.40;3.07;;;8.20;99.90;;;;;;5093408;28;20423;-69
2021/01/29 02:30:06;;;;;;;7.83;2.83;;;8.30;99.90;;;;;;5092085;28;20447;-70
2021/01/29 02:32:50;;;;;;;7.90;3.00;;;8.30;99.90;;;;;;5093688;28;20461;-69
2021/01/29 02:35:43;;;;;;;13.57;3.00;;;8.40;99.90;;;;;;5093350;28;20382;-69
2021/01/29 02:38:43;;;;;;;7.43;2.43;;;8.50;99.90;;;;;;5093265;28;20450;-69
2021/01/29 02:41:36;;;;;;;3.40;1.80;;;8.50;99.90;;;;;;5093301;28;20424;-68
2021/01/29 02:44:11;;;;;;;6.07;2.50;;;8.60;99.90;;;;;;5093513;28;20233;-67
2021/01/29 02:46:44;;;;;;;9.23;2.50;;;8.60;99.90;;;;;;5093222;28;20377;-68
2021/01/29 02:49:21;;;;;;;3.60;2.35;;;8.60;99.90;;;;;;5093498;28;20402;-68
2021/01/29 02:51:55;;;;;;;7.43;2.70;;;8.70;99.90;;;;;;5093366;28;20187;-68
2021/01/29 02:54:37;;;;;;;6.85;2.63;;;8.60;99.90;;;;;;5093144;28;20881;-68
2021/01/29 02:57:31;;;;;;;6.57;2.67;;;8.50;99.90;;;;;;5093191;28;20156;-66
2021/01/29 03:00:08;;;;;;;8.10;2.63;;;8.50;99.90;;;;;;5093311;28;20258;-68
2021/01/29 03:02:58;;;;;;;4.00;2.00;;;8.50;99.90;;;;;;5092994;28;20248;-67
2021/01/29 03:05:31;;;;;;;7.57;2.03;;;8.60;99.90;;;;;;5051565;28;20418;-68
2021/01/29 03:07:58;;;;;;;5.38;2.20;;;8.60;99.90;;;;;;5093015;28;20208;-68
2021/01/29 03:10:39;;;;;;;8.80;2.20;;;8.60;99.90;;;;;;5092816;28;20204;-68
2021/01/29 03:13:13;;;;;;;4.63;2.25;;;8.60;99.90;;;;;;5093249;28;20172;-68
2021/01/29 03:16:04;;;;;;;3.65;2.33;;;8.60;99.90;;;;;;5093042;28;20237;-68
2021/01/29 03:18:36;;;;;;;3.50;1.75;;;8.60;99.90;;;;;;5093244;28;20152;-68
2021/01/29 03:21:24;;;;;;;8.20;1.77;;;8.60;99.90;;;;;;5093178;28;20192;-68
2021/01/29 03:24:00;;;;;;;4.45;1.55;;;8.70;99.90;;;;;;5092854;28;20652;-68
2021/01/29 03:26:36;;;;;;;5.32;1.75;;;8.70;99.90;;;;;;5092825;28;20183;-68
2021/01/29 03:29:06;;;;;;;7.22;1.50;;;8.70;99.90;;;;;;5093046;28;20152;-68
2021/01/29 03:31:33;;;;;;;7.38;2.33;;;8.80;99.90;;;;;;5093294;28;20234;-68
2021/01/29 03:34:09;;;;;;;2.05;1.70;;;8.90;99.90;;;;;;5096728;28;20178;-68
2021/01/29 03:36:41;;;;;;;2.55;1.38;;;9.00;99.90;;;;;;5096634;28;20617;-68
2021/01/29 03:39:12;;;;;;;5.33;1.60;;;8.90;99.90;;;;;;5096870;28;20191;-68
2021/01/29 03:41:43;;;;;;;4.10;1.42;;;8.90;99.90;;;;;;5096496;28;20432;-68
2021/01/29 03:44:24;;;;;;;3.10;1.47;;;8.80;99.90;;;;;;5096495;28;20168;-68
2021/01/29 03:47:15;;;;;;;3.00;1.13;;;8.80;99.90;;;;;;5096672;28;20390;-68
2021/01/29 03:50:10;;;;;;;3.58;1.58;;;8.80;99.90;;;;;;5096348;28;20452;-68
2021/01/29 03:52:50;;;;;;;2.33;1.50;;;8.80;99.90;;;;;;5096495;28;20156;-68
2021/01/29 03:55:44;;;;;;;3.83;1.45;;;8.80;99.90;;;;;;5096267;28;20386;-68
2021/01/29 03:58:38;;;;;;;5.47;1.30;;;8.80;99.90;;;;;;5096303;28;20148;-68
2021/01/29 04:01:18;;;;;;;3.03;1.63;;;8.70;99.90;;;;;;5096123;28;20195;-68
2021/01/29 04:03:50;;;;;;;3.37;1.60;;;8.80;99.90;;;;;;5096382;28;20157;-68
2021/01/29 04:06:25;;;;;;;2.27;1.43;;;8.90;99.90;;;;;;5095811;28;20413;-68
2021/01/29 04:09:23;;;;;;;5.00;1.97;;;8.80;99.90;;;;;;5096090;28;20389;-68
2021/01/29 04:11:56;;;;;;;3.00;1.85;;;8.80;99.90;;;;;;5095898;28;20452;-68
2021/01/29 04:14:43;;;;;;;3.50;1.20;;;8.80;99.90;;;;;;5095823;28;20151;-68
2021/01/29 04:17:17;;;;;;;3.05;1.38;;;8.80;99.90;;;;;;5095817;28;20386;-68
2021/01/29 04:19:46;;;;;;;3.13;1.60;;;8.80;99.90;;;;;;5094501;28;20212;-68
2021/01/29 04:22:20;;;;;;;6.17;1.80;;;8.80;99.90;;;;;;5095789;28;20179;-68
2021/01/29 04:24:55;;;;;;;2.15;1.40;;;8.90;99.90;;;;;;5095675;28;20489;-68
2021/01/29 04:27:26;;;;;;;2.15;1.17;;;8.90;99.90;;;;;;5095886;28;20229;-68
2021/01/29 04:30:14;;;;;;;1.10;0.80;;;8.90;99.90;;;;;;5095751;28;20188;-68
2021/01/29 04:32:43;;;;;;;3.08;1.30;;;8.80;99.90;;;;;;5095784;28;20221;-68
2021/01/29 04:35:11;;;;;;;5.93;1.40;;;8.80;99.90;;;;;;5095488;28;20713;-68
2021/01/29 04:37:42;;;;;;;2.40;1.03;;;8.80;99.90;;;;;;5095718;28;20530;-68
2021/01/29 04:40:37;;;;;;;1.67;1.10;;;8.90;99.90;;;;;;5095372;28;20911;-68
2021/01/29 04:43:43;;;;;;;1.88;1.00;;;8.90;99.90;;;;;;5064628;28;20409;-68
2021/01/29 04:46:49;;;;;;;2.40;0.80;;;8.90;99.90;;;;;;5083999;28;20179;-67
2021/01/29 04:49:32;;;;;;;2.95;1.38;;;8.90;99.90;;;;;;5094920;28;20149;-69
2021/01/29 04:52:37;;;;;;;1.67;0.75;;;9.00;99.90;;;;;;5094781;28;20180;-68
2021/01/29 04:55:30;;;;;;;3.30;0.80;;;9.00;99.90;;;;;;5066225;28;20642;-68
2021/01/29 04:58:22;;;;;;;1.23;0.90;;;9.00;99.90;;;;;;5094799;28;20155;-67
2021/01/29 05:01:42;;;;;;;1.55;1.00;;;9.00;99.90;;;;;;5085241;28;20207;-67
2021/01/29 05:04:36;;;;;;;2.10;0.80;;;9.00;99.90;;;;;;5094928;28;20164;-68
2021/01/29 05:07:13;;;;;;;1.48;0.80;;;9.00;99.90;;;;;;5094594;28;20180;-68
2021/01/29 05:09:54;;;;;;;4.78;0.80;;;9.00;99.90;;;;;;5094927;28;20593;-68
2021/01/29 05:12:58;;;;;;;5.57;1.27;;;9.00;99.90;;;;;;5094691;28;20209;-68
2021/01/29 05:15:24;;;;;;;3.97;0.70;;;9.10;99.90;;;;;;5094732;28;20387;-68
2021/01/29 05:18:27;;;;;;;1.50;0.67;;;9.10;99.90;;;;;;5094885;28;20225;-68
2021/01/29 05:21:20;;;;;;;2.38;0.70;;;9.10;99.90;;;;;;5094552;28;20564;-68
2021/01/29 05:24:31;;;;;;;3.97;1.38;;;9.00;99.90;;;;;;5094765;28;20156;-68
2021/01/29 05:27:30;;;;;;;2.33;0.80;;;9.10;99.90;;;;;;5053216;28;20636;-68
2021/01/29 05:30:17;;;;;;;3.95;0.68;;;9.00;99.90;;;;;;5094572;28;20199;-68
2021/01/29 05:33:10;;;;;;;2.95;0.60;;;9.10;99.90;;;;;;5094361;28;20198;-67
2021/01/29 05:36:01;;;;;;;2.35;0.73;;;9.10;99.90;;;;;;5094649;28;20167;-68
2021/01/29 05:38:53;;;;;;;1.20;0.70;;;9.10;99.90;;;;;;5094937;28;20152;-68
2021/01/29 05:41:59;;;;;;;1.90;0.65;;;9.20;99.90;;;;;;5093465;28;20255;-68
2021/01/29 05:44:50;;;;;;;1.50;0.90;;;9.10;99.90;;;;;;5093966;28;20171;-67
2021/01/29 05:47:46;;;;;;;2.40;2.20;;;9.20;99.90;;;;;;5094084;28;20156;-67
2021/01/29 05:50:19;;;;;;;1.23;0.98;;;9.20;99.90;;;;;;5094061;28;20214;-67
2021/01/29 05:53:02;;;;;;;3.10;1.40;;;9.20;99.90;;;;;;5093996;28;20181;-68
2021/01/29 05:55:52;;;;;;;6.00;1.55;;;9.20;99.90;;;;;;5093684;28;20206;-68
2021/01/29 05:58:35;;;;;;;5.15;2.70;;;9.30;99.90;;;;;;5093776;28;20148;-67
2021/01/29 06:01:28;;;;;;;2.10;1.55;;;9.30;99.90;;;;;;5093803;28;20259;-68
2021/01/29 06:04:20;;;;;;;3.05;1.50;;;9.20;99.90;;;;;;5093898;28;20155;-68
2021/01/29 06:07:04;;;;;;;1.73;0.60;;;9.30;99.90;;;;;;5093565;28;20217;-68
2021/01/29 06:09:44;;;;;;;1.65;0.60;;;9.30;99.90;;;;;;5093639;28;20920;-68
2021/01/29 06:12:24;;;;;;;6.63;4.57;;;9.30;99.90;;;;;;5093837;28;20269;-68
2021/01/29 06:15:19;;;;;;;3.05;2.20;;;9.40;99.90;;;;;;5093843;28;20441;-68
2021/01/29 06:18:04;;;;;;;1.63;1.30;;;9.30;99.90;;;;;;5093721;28;20158;-68
2021/01/29 06:21:01;;;;;;;2.38;1.45;;;9.30;99.90;;;;;;5093587;28;20678;-68
2021/01/29 06:23:54;;;;;;;1.60;1.17;;;9.30;99.90;;;;;;5094323;28;20176;-69
2021/01/29 06:26:50;;;;;;;3.75;1.35;;;9.30;99.90;;;;;;5093256;28;20668;-67
2021/01/29 06:29:29;;;;;;;1.05;0.77;;;9.30;99.90;;;;;;5093671;28;20160;-67
2021/01/29 06:31:58;;;;;;;0.90;0.67;;;9.40;99.90;;;;;;5092546;28;20211;-67
2021/01/29 06:34:37;;;;;;;1.25;1.02;;;9.40;99.90;;;;;;5093461;28;20812;-67
2021/01/29 06:37:37;;;;;;;1.10;0.90;;;9.40;99.90;;;;;;5093281;28;20182;-66
2021/01/29 06:40:27;;;;;;;1.40;0.70;;;9.50;99.90;;;;;;5093297;28;20633;-67
2021/01/29 06:43:30;;;;;;;1.23;0.70;;;9.50;99.90;;;;;;5093131;28;20406;-68
2021/01/29 06:46:01;;;;;;;3.45;1.10;;;9.60;99.90;;;;;;5093009;28;20241;-68
2021/01/29 06:49:09;;;;;;;0.90;0.60;;;9.60;99.90;;;;;;5092886;28;20168;-68
2021/01/29 06:51:55;;;;;;;0.90;0.60;;;9.60;99.90;;;;;;5092756;28;20457;-67
2021/01/29 06:54:35;;;;;;;1.45;0.98;;;9.60;99.90;;;;;;5093055;28;20234;-69
2021/01/29 06:57:24;;;;;;;1.02;0.70;;;9.60;99.90;;;;;;5092189;28;20183;-69
2021/01/29 07:00:03;;;;;;;7.18;1.00;;;9.60;99.90;;;;;;5092508;28;20649;-70
2021/01/29 07:02:44;;;;;;;2.13;0.90;;;9.60;99.90;;;;;;5093038;28;20503;-69
2021/01/29 07:05:37;;;;;;;1.20;0.87;;;9.60;99.90;;;;;;5093437;28;20179;-69
2021/01/29 07:08:29;;;;;;;1.20;0.90;;;9.60;99.90;;;;;;5096230;28;20487;-69
2021/01/29 07:11:47;;;;;;;1.02;0.90;;;9.60;99.90;;;;;;5096942;28;20203;-69
2021/01/29 07:14:32;;;;;;;1.85;0.75;;;9.60;99.90;;;;;;5095637;28;20178;-69
2021/01/29 07:17:15;;;;;;;1.73;1.00;;;9.60;99.90;;;;;;5096150;28;20197;-69
2021/01/29 07:19:59;;;;;;;0.93;0.83;;;9.50;99.90;;;;;;5096951;28;20209;-69
2021/01/29 07:22:27;;;;;;;2.10;0.93;;;9.60;99.90;;;;;;5096655;28;20446;-68
2021/01/29 07:25:14;;;;;;;3.47;1.10;;;9.60;99.90;;;;;;5096667;28;20440;-69
2021/01/29 07:28:10;;;;;;;1.50;1.40;;;9.50;99.90;;;;;;5096807;28;20194;-69
2021/01/29 07:31:08;;;;;;;1.00;0.80;;;9.50;99.90;;;;;;5096386;28;20191;-69
2021/01/29 07:33:52;;;;;;;1.02;0.88;;;9.50;99.90;;;;;;5096781;28;20677;-68
2021/01/29 07:36:46;;;;;;;4.13;1.40;;;9.50;99.90;;;;;;5096312;28;20147;-68
2021/01/29 07:39:24;;;;;;;4.40;1.10;;;9.50;99.90;;;;;;5096408;28;20175;-69
2021/01/29 07:42:13;;;;;;;1.90;0.90;;;9.60;99.90;;;;;;5096663;28;20862;-69
2021/01/29 07:44:49;;;;;;;3.45;1.20;;;9.50;99.90;;;;;;5096409;28;20516;-66
2021/01/29 07:47:27;;;;;;;3.88;0.95;;;9.40;99.90;;;;;;5096557;28;20191;-66
2021/01/29 07:49:58;;;;;;;1.10;0.98;;;9.40;99.90;;;;;;5095202;28;20196;-68
2021/01/29 07:52:45;;;;;;;1.00;0.80;;;9.40;99.90;;;;;;5096548;28;20597;-67
2021/01/29 07:55:23;;;;;;;3.22;1.45;;;9.40;99.90;;;;;;5096397;28;20233;-66
2021/01/29 07:57:58;;;;;;;1.35;0.90;;;9.40;99.90;;;;;;5096043;28;20159;-68
2021/01/29 08:00:54;;;;;;;1.23;0.80;;;9.40;99.90;;;;;;5095972;28;20179;-68
2021/01/29 08:03:48;;;;;;;2.23;1.57;;;9.40;99.90;;;;;;5096190;28;20171;-68
2021/01/29 08:06:55;;;;;;;4.15;1.27;;;9.30;99.90;;;;;;5096149;28;20374;-69
2021/01/29 08:09:25;;;;;;;1.45;0.95;;;9.40;99.90;;;;;;4997300;28;20182;-68
2021/01/29 08:11:59;;;;;;;0.90;0.70;;;9.30;99.90;;;;;;5081110;28;20229;-68
2021/01/29 08:14:45;;;;;;;2.50;0.90;;;9.20;99.90;;;;;;5095678;28;20155;-67
2021/01/29 08:17:38;;;;;;;2.60;1.23;;;9.20;99.90;;;;;;5095760;28;20623;-68
2021/01/29 08:20:24;;;;;;;2.58;1.20;;;9.10;99.90;;;;;;5095830;28;20186;-68
2021/01/29 08:23:35;;;;;;;4.18;1.27;;;9.20;99.90;;;;;;5095888;28;20160;-68
2021/01/29 08:26:07;;;;;;;4.07;1.80;;;9.10;99.90;;;;;;5063900;28;20548;-68
2021/01/29 08:28:54;;;;;;;2.63;1.50;;;9.10;99.90;;;;;;5095127;28;20161;-69
2021/01/29 08:31:42;;;;;;;3.00;1.35;;;9.20;99.90;;;;;;5095428;28;20202;-68
2021/01/29 08:34:26;;;;;;;7.30;2.10;;;9.20;99.90;;;;;;5095490;28;20235;-69
2021/01/29 08:37:13;;;;;;;12.57;2.70;;;9.20;99.90;;;;;;5095443;28;20218;-68
2021/01/29 08:40:11;;;;;;;7.22;1.90;;;9.20;99.90;;;;;;5095198;28;20194;-69
2021/01/29 08:42:49;;;;;;;7.22;1.95;;;9.20;99.90;;;;;;5095230;28;20248;-68
2021/01/29 08:45:30;;;;;;;15.80;3.78;;;9.30;99.90;;;;;;5095135;28;20648;-69
2021/01/29 08:48:34;;;;;;;10.52;3.17;;;9.30;99.90;;;;;;5095046;28;20632;-69
2021/01/29 08:51:09;;;;;;;9.30;3.00;;;9.40;99.90;;;;;;5063878;28;20695;-69
2021/01/29 08:54:08;;;;;;;10.00;3.88;;;9.40;99.90;;;;;;5094838;28;20167;-69
2021/01/29 08:56:54;;;;;;;12.55;2.70;;;9.50;99.90;;;;;;5095012;28;20164;-68
2021/01/29 08:59:26;;;;;;;10.77;3.58;;;9.50;99.90;;;;;;5094829;28;20627;-68
2021/01/29 09:01:52;;;;;;;19.13;3.78;;;9.60;99.90;;;;;;5094826;28;20564;-69
2021/01/29 09:04:26;;;;;;;18.77;4.37;;;9.50;99.90;;;;;;5094587;28;20224;-68
2021/01/29 09:06:55;;;;;;;21.08;6.07;;;9.60;99.90;;;;;;5094868;28;20262;-67
2021/01/29 09:09:25;;;;;;;13.52;3.75;;;9.60;99.90;;;;;;5094416;28;20539;-69
2021/01/29 09:11:53;;;;;;;22.02;3.53;;;9.60;99.90;;;;;;5094155;28;20664;-69
2021/01/29 09:14:40;;;;;;;17.33;3.53;;;9.50;99.90;;;;;;5094738;28;20179;-69
2021/01/29 09:17:16;;;;;;;11.52;2.78;;;9.60;99.90;;;;;;5095067;28;20149;-68
2021/01/29 09:19:44;;;;;;;18.42;3.28;;;9.60;99.90;;;;;;5094433;28;20559;-69
2021/01/29 09:22:29;;;;;;;22.17;3.60;;;9.60;99.90;;;;;;5094157;28;20191;-68
2021/01/29 09:25:31;;;;;;;15.15;4.90;;;9.70;99.90;;;;;;5094684;28;20221;-68
2021/01/29 09:28:06;;;;;;;10.00;3.03;;;9.70;75.70;;;;;;5094455;28;20172;-67
2021/01/29 09:30:56;;;;;;;19.80;4.85;;;9.70;46.60;;;;;;5093595;28;20266;-68
2021/01/29 09:33:44;;;;;;;8.77;2.03;;;9.70;26.80;;;;;;5094703;28;20152;-68
2021/01/29 09:36:20;;;;;;;20.02;4.40;;;9.70;2.30;;;;;;5094301;28;20149;-68
2021/01/29 09:38:56;;;;;;;10.60;2.80;;;9.80;1.00;;;;;;5094163;28;20162;-70
2021/01/29 09:41:31;;;;;;;15.10;3.53;;;9.80;1.00;;;;;;5094192;28;20190;-69
2021/01/29 09:44:20;;;;;;;16.27;3.88;;;9.80;1.00;;;;;;5094067;28;20159;-68
2021/01/29 09:46:46;;;;;;;13.45;3.05;;;9.80;1.00;;;;;;5094052;28;20152;-69
2021/01/29 09:49:19;;;;;;;20.83;4.65;;;9.90;99.90;;;;;;5093814;28;20212;-67
2021/01/29 09:52:00;;;;;;;10.65;2.65;;;9.90;99.90;;;;;;5093755;28;20274;-69
2021/01/29 09:54:53;;;;;;;13.23;3.33;;;9.90;16.30;;;;;;5093958;28;20194;-67
2021/01/29 09:57:26;;;;;;;8.57;2.20;;;9.90;1.00;;;;;;5093955;28;20156;-68
2021/01/29 09:59:58;;;;;;;11.40;3.83;;;9.90;1.00;;;;;;5094116;28;20188;-66
2021/01/29 10:02:50;;;;;;;8.85;2.08;;;10.00;1.00;;;;;;5093953;28;20505;-68
2021/01/29 10:05:26;;;;;;;22.60;4.53;;;10.00;1.00;;;;;;5094166;28;20164;-68
2021/01/29 10:08:09;;;;;;;23.20;6.20;;;10.00;1.00;;;;;;5091919;28;20194;-68
2021/01/29 10:10:43;;;;;;;19.70;4.72;;;10.00;99.90;;;;;;5093204;28;20230;-67
2021/01/29 10:13:39;;;;;;;13.15;2.75;;;10.00;8.20;;;;;;5093380;28;20231;-69
2021/01/29 10:16:20;;;;;;;13.07;3.00;;;10.00;1.00;;;;;;5093473;28;20238;-67
2021/01/29 10:19:22;;;;;;;15.68;3.53;;;10.10;1.00;;;;;;5093430;28;20227;-67
2021/01/29 10:21:57;;;;;;;16.92;3.40;;;10.20;1.00;;;;;;5093133;28;20224;-69
2021/01/29 10:24:31;;;;;;;20.67;3.88;;;10.10;1.00;;;;;;5093469;28;20171;-69
2021/01/29 10:27:03;;;;;;;12.80;2.95;;;10.10;1.00;;;;;;5093428;28;20155;-68
2021/01/29 10:29:32;;;;;;;19.75;3.88;;;10.10;1.00;;;;;;5093135;28;20297;-68
2021/01/29 10:32:12;;;;;;;17.70;3.00;;;10.20;1.00;;;;;;5092990;28;20292;-68
2021/01/29 10:34:57;;;;;;;25.77;4.27;;;10.30;1.00;;;;;;5093365;28;20397;-68
2021/01/29 10:37:45;;;;;;;19.60;4.25;;;10.30;99.90;;;;;;5093094;28;20390;-69
2021/01/29 10:40:11;;;;;;;10.83;2.70;;;10.40;99.90;;;;;;5092873;28;20183;-69
2021/01/29 10:42:46;;;;;;;21.30;5.63;;;10.50;99.90;;;;;;5092772;28;20482;-68
2021/01/29 10:45:37;;;;;;;13.50;2.90;;;10.40;99.90;;;;;;5093301;28;20175;-68
2021/01/29 10:48:15;;;;;;;11.40;2.20;;;10.60;99.90;;;;;;5093570;28;20390;-69
2021/01/29 10:50:55;;;;;;;10.90;3.17;;;10.40;99.90;;;;;;5091949;28;20461;-68
2021/01/29 10:53:23;;;;;;;21.60;3.30;;;10.50;99.90;;;;;;5093370;28;20426;-68
2021/01/29 10:56:11;;;;;;;17.70;5.60;;;10.50;99.90;;;;;;5091717;28;20458;-69
2021/01/29 10:58:58;;;;;;;17.50;3.40;;;10.60;99.90;;;;;;5092753;28;20384;-69
2021/01/29 11:01:39;;;;;;;11.50;3.60;;;10.60;99.90;;;;;;5093014;28;20491;-69
2021/01/29 11:04:10;;;;;;;20.00;4.00;;;10.70;99.90;;;;;;5092858;28;20376;-67
2021/01/29 11:06:50;;;;;;;17.30;3.30;;;10.60;99.90;;;;;;5092656;28;20507;-69
2021/01/29 11:09:34;;;;;;;14.10;3.70;;;10.60;99.90;;;;;;5093153;28;20866;-68
2021/01/29 11:12:05;;;;;;;10.20;2.83;;;10.60;99.90;;;;;;5091249;28;20522;-69
2021/01/29 11:14:40;;;;;;;19.67;3.33;;;10.60;99.90;;;;;;5093204;28;20388;-68
2021/01/29 11:17:15;;;;;;;19.93;4.53;;;10.50;99.90;;;;;;5093008;28;20885;-68
2021/01/29 11:19:46;;;;;;;18.13;4.33;;;10.40;99.90;;;;;;5092898;28;20417;-68
2021/01/29 11:22:38;;;;;;;9.30;2.47;;;10.40;99.90;;;;;;5092912;28;20492;-69
2021/01/29 11:25:27;;;;;;;18.10;3.85;;;10.30;1.00;;;;;;5092502;28;20403;-69
2021/01/29 11:28:36;;;;;;;13.47;3.30;;;10.30;1.00;;;;;;5091621;28;20160;-69
2021/01/29 11:31:08;;;;;;;15.50;3.50;;;10.40;1.00;;;;;;5092933;28;20449;-66
2021/01/29 11:33:37;;;;;;;20.25;4.45;;;10.40;1.00;;;;;;5092895;28;20382;-67
2021/01/29 11:36:24;;;;;;;19.00;4.00;;;10.30;1.00;;;;;;5092486;28;20247;-68
2021/01/29 11:39:01;;;;;;;26.50;4.37;;;10.30;1.00;;;;;;5092772;28;20385;-66
2021/01/29 11:41:42;;;;;;;31.63;5.30;;;10.40;1.00;;;;;;5092806;28;20437;-67
2021/01/29 11:44:11;;;;;;;20.53;4.67;;;10.40;1.00;;;;;;5091115;28;20406;-68
2021/01/29 11:46:46;;;;;;;27.87;5.33;;;10.30;1.00;;;;;;5092692;28;20414;-67
2021/01/29 11:49:35;;;;;;;28.57;4.20;;;10.30;1.00;;;;;;5092843;28;20386;-67
2021/01/29 11:52:18;;;;;;;16.67;4.73;;;10.20;1.00;;;;;;5092622;28;20584;-68
2021/01/29 11:55:13;;;;;;;18.30;3.13;;;10.40;1.00;;;;;;5096392;28;20385;-67
2021/01/29 11:57:58;;;;;;;14.90;3.70;;;10.30;1.00;;;;;;5096825;28;20221;-68
2021/01/29 12:00:58;;;;;;;21.97;4.03;;;10.30;1.00;;;;;;5096360;28;20804;-68
2021/01/29 12:03:53;;;;;;;12.33;3.03;;;10.30;1.00;;;;;;5095948;28;20398;-67
2021/01/29 12:06:30;;;;;;;18.73;4.73;;;10.40;1.00;;;;;;5096039;28;20382;-68
2021/01/29 12:09:17;;;;;;;12.33;3.47;;;10.30;13.80;;;;;;5096250;28;20700;-66
2021/01/29 12:12:14;;;;;;;11.70;2.65;;;10.10;1.00;;;;;;5095604;28;20478;-65
2021/01/29 12:14:49;;;;;;;11.27;3.00;;;10.10;99.90;;;;;;5079791;28;20187;-67
2021/01/29 12:17:22;;;;;;;18.08;3.55;;;10.10;1.00;;;;;;5095832;28;20149;-68
2021/01/29 12:19:49;;;;;;;16.17;3.50;;;10.20;1.00;;;;;;5096082;28;20194;-68
2021/01/29 12:22:27;;;;;;;22.98;3.63;;;10.30;1.00;;;;;;5095548;28;20444;-69
2021/01/29 12:25:24;;;;;;;12.30;3.67;;;10.70;86.40;;;;;;5095681;28;20163;-69
2021/01/29 12:27:58;;;;;;;14.13;3.97;;;11.20;97.50;;;;;;5096122;28;20822;-68
2021/01/29 12:30:31;;;;;;;15.20;4.00;;;11.30;1.00;;;;;;5095385;28;20698;-68
2021/01/29 12:33:15;;;;;;;19.37;3.77;;;11.60;1.00;;;;;;5095382;28;20414;-69
2021/01/29 12:35:41;;;;;;;13.87;2.53;;;11.70;99.90;;;;;;5095414;28;20378;-68
2021/01/29 12:38:27;;;;;;;12.90;2.20;;;11.80;99.90;;;;;;5095505;28;20399;-69
2021/01/29 12:41:29;;;;;;;18.63;2.73;;;11.80;99.90;;;;;;5095347;28;20191;-67
2021/01/29 12:44:22;;;;;;;9.80;2.77;;;11.70;99.90;;;;;;5094877;28;20412;-69
2021/01/29 12:46:50;;;;;;;14.80;2.50;;;11.40;99.90;;;;;;5095333;28;20435;-67
2021/01/29 12:49:56;;;;;;;9.20;1.60;;;11.40;99.90;;;;;;5095340;28;20928;-68
2021/01/29 12:52:27;;;;;;;10.20;2.47;;;11.20;99.90;;;;;;5091551;28;20810;-68
2021/01/29 12:55:09;;;;;;;2.80;1.27;;;11.00;99.90;;;;;;5094944;28;20909;-68
2021/01/29 12:57:34;;;;;;;5.67;1.77;;;10.90;99.90;;;;;;5095234;28;20734;-69
2021/01/29 13:00:07;;;;;;;10.27;2.03;;;10.90;99.90;;;;;;5094953;28;20520;-68
2021/01/29 13:02:40;;;;;;;7.33;1.20;;;10.70;99.90;;;;;;5095127;28;20648;-68
2021/01/29 13:05:25;;;;;;;7.23;1.77;;;10.70;99.90;;;;;;5094126;28;20488;-68
2021/01/29 13:08:26;;;;;;;7.37;2.00;;;10.70;99.90;;;;;;5094534;28;20434;-67
2021/01/29 13:11:02;;;;;;;9.50;2.10;;;10.70;99.90;;;;;;5012315;28;21002;-68
2021/01/29 13:13:36;;;;;;;6.03;1.60;;;10.70;99.90;;;;;;5083215;28;20421;-69
2021/01/29 13:16:11;;;;;;;10.47;2.23;;;10.90;99.90;;;;;;5094237;28;20382;-69
2021/01/29 13:18:54;;;;;;;5.30;1.67;;;11.10;99.90;;;;;;5094747;28;20420;-68
2021/01/29 13:21:32;;;;;;;7.13;1.13;;;11.80;99.90;;;;;;5094635;28;20425;-68
2021/01/29 13:23:59;;;;;;;6.97;1.30;;;11.70;99.90;;;;;;5094645;28;20452;-69
2021/01/29 13:26:38;;;;;;;7.80;2.03;;;11.40;99.90;;;;;;5095220;28;20744;-68
2021/01/29 13:29:26;;;;;;;5.33;1.63;;;11.80;99.90;;;;;;5095003;28;20858;-70
2021/01/29 13:31:56;;;;;;;4.53;1.40;;;12.20;99.90;;;;;;5094511;28;20456;-69
2021/01/29 13:34:24;;;;;;;12.67;1.93;;;12.10;72.00;;;;;;5094615;28;20425;-67
2021/01/29 13:37:14;;;;;;;6.17;1.53;;;11.80;99.90;;;;;;5093076;28;20412;-67
2021/01/29 13:39:43;;;;;;;15.77;2.87;;;11.40;99.90;;;;;;5094618;28;20421;-67
2021/01/29 13:42:21;;;;;;;14.73;2.67;;;11.80;99.90;;;;;;5094128;28;20881;-68
2021/01/29 13:44:48;;;;;;;12.90;2.27;;;12.30;68.40;;;;;;5094387;28;20390;-69
2021/01/29 13:47:25;;;;;;;7.10;1.73;;;12.20;81.50;;;;;;5094362;28;20497;-69
2021/01/29 13:49:51;;;;;;;7.80;1.90;;;12.20;83.40;;;;;;5094306;28;20432;-67
2021/01/29 13:52:32;;;;;;;6.10;2.40;;;11.70;78.90;;;;;;5094137;28;20453;-69
2021/01/29 13:55:33;;;;;;;10.30;2.40;;;11.60;99.90;;;;;;5094271;28;20397;-68
2021/01/29 13:58:06;;;;;;;26.10;2.60;;;11.40;99.90;;;;;;5061169;28;20417;-69